createdAt,value
2018-07-25T00:02:28.072Z,23.20
2018-07-25T00:04:57.015Z,21.73
2018-07-25T00:07:26.844Z,21.73
2018-07-25T00:09:55.874Z,20.17
2018-07-25T00:12:25.028Z,21.70
2018-07-25T00:14:54.011Z,21.10
2018-07-25T00:17:22.980Z,23.10
2018-07-25T00:19:51.970Z,21.43
2018-07-25T00:22:21.261Z,21.17
2018-07-25T00:24:51.057Z,22.27
2018-07-25T00:27:20.417Z,21.47
2018-07-25T00:29:49.374Z,21.87
2018-07-25T00:32:18.441Z,20.07
2018-07-25T00:34:47.399Z,22.27
2018-07-25T00:37:16.396Z,20.77
2018-07-25T00:39:45.346Z,21.50
2018-07-25T00:42:14.318Z,20.40
2018-07-25T00:44:43.334Z,21.40
2018-07-25T00:47:12.858Z,19.90
2018-07-25T00:49:42.785Z,20.27
2018-07-25T00:52:11.783Z,21.57
2018-07-25T00:54:41.325Z,21.83
2018-07-25T00:57:11.124Z,21.30
2018-07-25T00:59:40.112Z,19.40
2018-07-25T01:02:09.437Z,19.57
2018-07-25T01:04:38.413Z,20.30
2018-07-25T01:07:07.465Z,20.50
2018-07-25T01:09:36.449Z,20.97
2018-07-25T01:12:05.446Z,20.93
2018-07-25T01:14:34.446Z,18.97
2018-07-25T01:17:03.432Z,20.60
2018-07-25T01:19:32.410Z,20.60
2018-07-25T01:22:02.173Z,19.00
2018-07-25T01:24:31.203Z,19.53
2018-07-25T01:27:00.346Z,19.30
2018-07-25T01:29:29.382Z,21.10
2018-07-25T01:31:58.381Z,20.23
2018-07-25T01:34:27.386Z,20.73
2018-07-25T01:36:56.561Z,21.80
2018-07-25T01:39:25.523Z,19.87
2018-07-25T01:41:54.502Z,18.83
2018-07-25T01:44:23.510Z,19.50
2018-07-25T01:46:52.521Z,19.33
2018-07-25T01:49:22.028Z,21.37
2018-07-25T01:51:51.001Z,19.90
2018-07-25T01:54:20.426Z,20.13
2018-07-25T01:56:49.462Z,19.57
2018-07-25T01:59:19.819Z,20.50
2018-07-25T02:01:48.842Z,20.30
2018-07-25T02:04:17.792Z,21.00
2018-07-25T02:06:48.112Z,20.07
2018-07-25T02:09:17.060Z,19.07
2018-07-25T02:11:46.006Z,20.30
2018-07-25T02:14:15.699Z,21.17
2018-07-25T02:16:44.677Z,20.80
2018-07-25T02:19:13.681Z,19.17
2018-07-25T02:21:42.651Z,20.00
2018-07-25T02:24:12.525Z,19.17
2018-07-25T02:26:42.436Z,19.40
2018-07-25T02:29:12.196Z,20.30
2018-07-25T02:31:41.591Z,21.60
2018-07-25T02:34:15.795Z,19.63
2018-07-25T02:36:44.828Z,19.20
2018-07-25T02:39:14.647Z,19.13
2018-07-25T02:41:44.787Z,18.70
2018-07-25T02:44:14.723Z,19.30
2018-07-25T02:46:43.807Z,19.00
2018-07-25T02:49:13.040Z,18.37
2018-07-25T02:51:42.129Z,19.03
2018-07-25T02:54:11.864Z,19.57
2018-07-25T02:56:40.844Z,20.00
2018-07-25T02:59:10.341Z,18.70
2018-07-25T03:01:39.304Z,18.03
2018-07-25T03:04:09.504Z,19.60
2018-07-25T03:06:38.609Z,19.13
2018-07-25T03:09:09.250Z,21.00
2018-07-25T03:11:38.998Z,19.73
2018-07-25T03:14:08.019Z,18.93
2018-07-25T03:16:37.558Z,19.63
2018-07-25T03:19:06.809Z,19.77
2018-07-25T03:21:35.938Z,18.60
2018-07-25T03:24:05.029Z,19.17
2018-07-25T03:26:34.109Z,17.93
2018-07-25T03:29:03.189Z,18.87
2018-07-25T03:31:32.193Z,19.33
2018-07-25T03:34:01.332Z,20.07
2018-07-25T03:36:30.810Z,20.10
2018-07-25T03:38:59.756Z,18.83
2018-07-25T03:41:28.685Z,19.40
2018-07-25T03:43:58.884Z,18.30
2018-07-25T03:46:27.888Z,18.70
2018-07-25T03:48:56.897Z,18.40
2018-07-25T03:51:25.975Z,19.00
2018-07-25T03:53:55.085Z,18.57
2018-07-25T03:56:24.191Z,21.23
2018-07-25T03:58:53.179Z,19.30
2018-07-25T04:01:22.301Z,19.17
2018-07-25T04:03:55.612Z,18.30
2018-07-25T04:06:24.698Z,19.13
2018-07-25T04:08:53.753Z,19.50
2018-07-25T04:11:22.872Z,18.73
2018-07-25T04:13:51.905Z,17.90
2018-07-25T04:16:21.243Z,18.13
2018-07-25T04:18:50.249Z,18.00
2018-07-25T04:21:19.256Z,17.57
2018-07-25T04:23:48.432Z,18.30
2018-07-25T04:26:17.432Z,17.00
2018-07-25T04:28:46.458Z,16.47
2018-07-25T04:31:15.470Z,17.77
2018-07-25T04:33:44.514Z,17.23
2018-07-25T04:36:13.493Z,17.20
2018-07-25T04:38:43.882Z,16.93
2018-07-25T04:41:12.920Z,15.83
2018-07-25T04:43:41.875Z,17.30
2018-07-25T04:46:12.059Z,18.67
2018-07-25T04:48:40.988Z,16.97
2018-07-25T04:51:10.129Z,16.60
2018-07-25T04:53:39.169Z,16.50
2018-07-25T04:56:08.171Z,17.17
2018-07-25T04:58:37.500Z,15.30
2018-07-25T05:01:06.549Z,15.60
2018-07-25T05:03:35.517Z,16.27
2018-07-25T05:06:05.425Z,15.40
2018-07-25T05:08:35.126Z,16.40
2018-07-25T05:11:04.643Z,14.47
2018-07-25T05:13:33.616Z,14.90
2018-07-25T05:16:02.566Z,14.60
2018-07-25T05:18:31.548Z,15.03
2018-07-25T05:21:00.539Z,13.90
2018-07-25T05:23:29.529Z,14.90
2018-07-25T05:25:58.568Z,14.20
2018-07-25T05:28:27.555Z,13.90
2018-07-25T05:30:56.576Z,13.07
2018-07-25T05:33:25.539Z,12.60
2018-07-25T05:35:54.593Z,12.80
2018-07-25T05:38:23.616Z,13.37
2018-07-25T05:40:52.688Z,13.53
2018-07-25T05:43:23.465Z,14.37
2018-07-25T05:45:52.458Z,11.70
2018-07-25T05:48:21.483Z,12.90
2018-07-25T05:50:50.461Z,12.80
2018-07-25T05:53:19.478Z,10.40
2018-07-25T05:55:49.024Z,10.70
2018-07-25T05:58:18.159Z,11.37
2018-07-25T06:00:47.117Z,10.87
2018-07-25T06:03:16.377Z,10.47
2018-07-25T06:05:45.354Z,10.20
2018-07-25T06:08:14.276Z,11.07
2018-07-25T06:10:43.330Z,10.13
2018-07-25T06:13:13.238Z,8.37
2018-07-25T06:15:42.437Z,9.50
2018-07-25T06:18:11.533Z,9.50
2018-07-25T06:20:40.566Z,8.90
2018-07-25T06:23:09.520Z,9.33
2018-07-25T06:25:38.533Z,8.60
2018-07-25T06:28:07.483Z,8.97
2018-07-25T06:30:36.530Z,8.33
2018-07-25T06:33:05.501Z,9.73
2018-07-25T06:35:35.452Z,9.47
2018-07-25T06:38:04.477Z,9.03
2018-07-25T06:40:33.439Z,8.70
2018-07-25T06:43:02.589Z,7.90
2018-07-25T06:45:31.696Z,8.23
2018-07-25T06:48:03.221Z,8.10
2018-07-25T06:50:32.215Z,9.20
2018-07-25T06:53:01.269Z,8.40
2018-07-25T06:55:30.309Z,8.20
2018-07-25T06:57:59.768Z,8.60
2018-07-25T07:00:28.808Z,8.70
2018-07-25T07:02:57.793Z,7.53
2018-07-25T07:05:27.198Z,7.20
2018-07-25T07:07:56.284Z,7.80
2018-07-25T07:10:25.593Z,8.63
2018-07-25T07:12:54.850Z,7.50
2018-07-25T07:15:24.106Z,8.20
2018-07-25T07:17:53.251Z,7.33
2018-07-25T07:20:22.390Z,7.50
2018-07-25T07:22:51.574Z,8.10
2018-07-25T07:25:20.728Z,8.30
2018-07-25T07:27:49.771Z,7.30
2018-07-25T07:30:18.952Z,8.00
2018-07-25T07:32:48.093Z,7.60
2018-07-25T07:35:17.276Z,7.77
2018-07-25T07:37:46.501Z,7.97
2018-07-25T07:40:15.725Z,7.80
2018-07-25T07:42:44.855Z,8.07
2018-07-25T07:45:14.002Z,7.37
2018-07-25T07:47:44.450Z,7.43
2018-07-25T07:50:17.375Z,7.70
2018-07-25T07:52:46.563Z,7.67
2018-07-25T07:55:15.750Z,6.80
2018-07-25T07:57:44.923Z,7.80
2018-07-25T08:00:14.677Z,7.13
2018-07-25T08:02:43.896Z,7.03
2018-07-25T08:05:13.128Z,7.30
2018-07-25T08:07:45.121Z,7.80
2018-07-25T08:10:14.645Z,7.77
2018-07-25T08:12:43.869Z,7.10
2018-07-25T08:15:13.416Z,7.50
2018-07-25T08:17:42.755Z,6.80
2018-07-25T08:20:12.036Z,8.47
2018-07-25T08:22:41.495Z,8.27
2018-07-25T08:25:11.616Z,7.97
2018-07-25T08:27:41.056Z,8.07
2018-07-25T08:30:12.293Z,7.43
2018-07-25T08:32:47.726Z,8.40
2018-07-25T08:35:19.241Z,9.10
2018-07-25T08:37:48.752Z,9.47
2018-07-25T08:40:19.415Z,7.97
2018-07-25T08:42:51.485Z,8.30
2018-07-25T08:45:21.994Z,8.60
2018-07-25T08:47:54.606Z,8.50
2018-07-25T08:50:24.090Z,8.23
2018-07-25T08:52:54.326Z,7.90
2018-07-25T08:55:25.454Z,8.70
2018-07-25T08:57:55.488Z,7.80
2018-07-25T09:00:26.205Z,7.90
2018-07-25T09:02:56.869Z,8.80
2018-07-25T09:05:26.901Z,8.50
2018-07-25T09:07:57.220Z,8.33
2018-07-25T09:10:27.537Z,8.30
2018-07-25T09:12:58.046Z,8.40
2018-07-25T09:15:28.917Z,7.63
2018-07-25T09:17:58.197Z,8.23
2018-07-25T09:20:27.524Z,7.47
2018-07-25T09:22:56.874Z,7.77
2018-07-25T09:25:26.574Z,8.07
2018-07-25T09:27:58.752Z,7.77
2018-07-25T09:30:29.641Z,7.70
2018-07-25T09:32:59.430Z,7.77
2018-07-25T09:35:28.941Z,7.13
2018-07-25T09:37:58.025Z,7.70
2018-07-25T09:40:27.156Z,7.40
2018-07-25T09:42:56.253Z,8.60
2018-07-25T09:45:25.489Z,7.30
2018-07-25T09:47:55.691Z,8.37
2018-07-25T09:50:24.951Z,7.97
2018-07-25T09:52:54.123Z,7.43
2018-07-25T09:55:23.319Z,8.40
2018-07-25T09:57:54.079Z,7.80
2018-07-25T10:00:28.361Z,8.67
2018-07-25T10:02:57.569Z,8.87
2018-07-25T10:05:27.338Z,8.10
2018-07-25T10:07:56.594Z,8.23
2018-07-25T10:10:25.869Z,8.30
2018-07-25T10:12:55.045Z,7.90
2018-07-25T10:15:24.555Z,7.70
2018-07-25T10:17:54.697Z,7.47
2018-07-25T10:20:24.930Z,8.40
2018-07-25T10:22:55.054Z,8.73
2018-07-25T10:25:24.650Z,7.30
2018-07-25T10:27:53.923Z,7.10
2018-07-25T10:30:23.242Z,8.00
2018-07-25T10:32:52.494Z,6.90
2018-07-25T10:35:23.273Z,7.40
2018-07-25T10:37:52.486Z,7.50
2018-07-25T10:40:21.619Z,8.23
2018-07-25T10:42:50.958Z,7.70
2018-07-25T10:45:21.510Z,6.20
2018-07-25T10:47:51.229Z,8.70
2018-07-25T10:50:20.918Z,7.83
2018-07-25T10:52:50.920Z,8.07
2018-07-25T10:55:20.851Z,9.20
2018-07-25T10:57:50.432Z,8.80
2018-07-25T11:00:20.202Z,7.67
2018-07-25T11:02:49.843Z,6.97
2018-07-25T11:05:20.299Z,6.40
2018-07-25T11:07:52.529Z,6.60
2018-07-25T11:10:21.658Z,7.40
2018-07-25T11:12:50.758Z,7.00
2018-07-25T11:15:19.900Z,6.43
2018-07-25T11:17:49.532Z,6.70
2018-07-25T11:20:18.661Z,6.57
2018-07-25T11:22:47.756Z,8.70
2018-07-25T11:25:17.808Z,8.37
2018-07-25T11:27:46.906Z,9.80
2018-07-25T11:30:17.309Z,14.97
2018-07-25T11:32:46.622Z,6.80
2018-07-25T11:35:15.855Z,5.97
2018-07-25T11:37:46.443Z,7.10
2018-07-25T11:40:15.941Z,5.73
2018-07-25T11:42:44.982Z,6.10
2018-07-25T11:45:14.090Z,6.43
2018-07-25T11:47:43.518Z,6.20
2018-07-25T11:50:12.965Z,6.20
2018-07-25T11:52:42.203Z,6.97
2018-07-25T11:55:11.485Z,6.60
2018-07-25T11:57:40.586Z,7.23
2018-07-25T12:00:09.817Z,5.60
2018-07-25T12:02:40.371Z,6.20
2018-07-25T12:05:09.900Z,6.23
2018-07-25T12:07:39.041Z,6.80
2018-07-25T12:10:08.249Z,6.73
2018-07-25T12:12:37.553Z,9.17
2018-07-25T12:15:08.258Z,7.10
2018-07-25T12:17:37.565Z,7.83
2018-07-25T12:20:07.111Z,6.93
2018-07-25T12:22:36.266Z,6.53
2018-07-25T12:25:07.016Z,6.13
2018-07-25T12:27:36.212Z,6.80
2018-07-25T12:30:06.921Z,5.90
2018-07-25T12:32:36.330Z,6.27
2018-07-25T12:35:05.715Z,5.80
2018-07-25T12:37:34.833Z,5.60
2018-07-25T12:40:04.067Z,5.40
2018-07-25T12:42:33.220Z,5.20
2018-07-25T12:45:02.358Z,4.70
2018-07-25T12:47:32.214Z,6.07
2018-07-25T12:50:01.473Z,5.00
2018-07-25T12:52:30.654Z,4.93
2018-07-25T12:54:59.900Z,5.63
2018-07-25T12:57:29.976Z,5.23
2018-07-25T12:59:59.357Z,5.70
2018-07-25T13:02:28.456Z,5.03
2018-07-25T13:04:57.662Z,4.67
2018-07-25T13:07:27.099Z,5.17
2018-07-25T13:09:56.518Z,5.63
2018-07-25T13:12:26.658Z,4.83
2018-07-25T13:14:55.762Z,4.57
2018-07-25T13:17:24.880Z,4.80
2018-07-25T13:19:55.231Z,5.80
2018-07-25T13:22:24.465Z,5.50
2018-07-25T13:24:54.201Z,5.37
2018-07-25T13:27:23.688Z,5.73
2018-07-25T13:29:53.022Z,5.40
2018-07-25T13:32:22.209Z,5.10
2018-07-25T13:34:51.297Z,5.80
2018-07-25T13:37:20.460Z,5.43
2018-07-25T13:39:49.662Z,4.87
2018-07-25T13:42:18.801Z,5.50
2018-07-25T13:44:47.908Z,4.50
2018-07-25T13:47:17.081Z,4.13
2018-07-25T13:49:46.301Z,5.13
2018-07-25T13:52:15.773Z,4.73
2018-07-25T13:54:45.099Z,4.40
2018-07-25T13:57:14.237Z,4.73
2018-07-25T13:59:43.538Z,4.80
2018-07-25T14:02:12.634Z,4.40
2018-07-25T14:04:41.777Z,4.20
2018-07-25T14:07:10.903Z,3.63
2018-07-25T14:09:40.106Z,3.20
2018-07-25T14:12:09.357Z,3.80
2018-07-25T14:14:38.465Z,3.70
2018-07-25T14:17:07.709Z,3.50
2018-07-25T14:19:36.884Z,4.07
2018-07-25T14:22:06.451Z,3.60
2018-07-25T14:24:35.684Z,3.10
2018-07-25T14:27:04.945Z,2.93
2018-07-25T14:29:34.011Z,4.40
2018-07-25T14:32:03.261Z,4.67
2018-07-25T14:34:32.407Z,4.67
2018-07-25T14:37:07.806Z,4.50
2018-07-25T14:39:37.024Z,4.43
2018-07-25T14:42:06.389Z,4.77
2018-07-25T14:44:35.632Z,5.00
2018-07-25T14:47:05.333Z,4.73
2018-07-25T14:49:34.389Z,4.53
2018-07-25T14:52:03.554Z,5.80
2018-07-25T14:54:32.672Z,5.20
2018-07-25T14:57:01.908Z,4.60
2018-07-25T14:59:30.905Z,5.60
2018-07-25T15:02:00.129Z,5.53
2018-07-25T15:04:30.506Z,5.30
2018-07-25T15:06:59.617Z,5.80
2018-07-25T15:09:28.870Z,5.97
2018-07-25T15:11:58.638Z,5.43
2018-07-25T15:14:27.810Z,5.60
2018-07-25T15:16:57.078Z,5.23
2018-07-25T15:19:26.253Z,5.73
2018-07-25T15:21:55.424Z,4.67
2018-07-25T15:24:24.613Z,4.43
2018-07-25T15:26:53.678Z,4.50
2018-07-25T15:29:23.654Z,4.60
2018-07-25T15:31:52.818Z,4.60
2018-07-25T15:34:22.322Z,6.10
2018-07-25T15:36:52.684Z,5.20
2018-07-25T15:39:26.219Z,5.37
2018-07-25T15:41:56.825Z,5.30
2018-07-25T15:44:28.705Z,5.53
2018-07-25T15:46:57.929Z,5.90
2018-07-25T15:49:27.128Z,5.43
2018-07-25T15:51:56.279Z,5.17
2018-07-25T15:54:25.431Z,5.10
2018-07-25T15:56:54.501Z,5.33
2018-07-25T15:59:23.726Z,5.00
2018-07-25T16:01:52.818Z,5.27
2018-07-25T16:04:22.008Z,5.10
2018-07-25T16:06:51.248Z,5.00
2018-07-25T16:09:20.549Z,5.27
2018-07-25T16:11:49.768Z,5.10
2018-07-25T16:14:19.232Z,4.80
2018-07-25T16:16:49.832Z,4.70
2018-07-25T16:19:19.020Z,5.20
2018-07-25T16:21:48.299Z,5.70
2018-07-25T16:24:17.561Z,6.37
2018-07-25T16:26:46.650Z,5.60
2018-07-25T16:29:16.457Z,6.50
2018-07-25T16:31:45.728Z,6.70
2018-07-25T16:34:14.920Z,8.40
2018-07-25T16:36:44.297Z,8.10
2018-07-25T16:39:18.003Z,8.97
2018-07-25T16:41:47.243Z,8.80
2018-07-25T16:44:16.448Z,10.23
2018-07-25T16:46:46.348Z,9.73
2018-07-25T16:49:15.528Z,11.37
2018-07-25T16:51:44.676Z,10.40
2018-07-25T16:54:13.947Z,13.97
2018-07-25T16:56:42.995Z,12.70
2018-07-25T16:59:12.728Z,10.53
2018-07-25T17:01:42.712Z,13.00
2018-07-25T17:04:11.705Z,11.87
2018-07-25T17:06:40.769Z,12.53
2018-07-25T17:09:11.294Z,12.77
2018-07-25T17:11:40.408Z,15.43
2018-07-25T17:14:09.462Z,16.90
2018-07-25T17:16:38.518Z,13.57
2018-07-25T17:19:07.493Z,14.17
2018-07-25T17:21:38.485Z,13.50
2018-07-25T17:24:07.662Z,14.43
2018-07-25T17:26:36.737Z,13.80
2018-07-25T17:29:05.879Z,14.17
2018-07-25T17:31:35.043Z,16.30
2018-07-25T17:34:04.227Z,14.83
2018-07-25T17:36:33.329Z,13.83
2018-07-25T17:39:02.494Z,14.50
2018-07-25T17:41:31.625Z,12.50
2018-07-25T17:44:00.725Z,15.40
2018-07-25T17:46:29.798Z,13.30
2018-07-25T17:48:59.017Z,14.30
2018-07-25T17:51:28.197Z,14.67
2018-07-25T17:53:57.265Z,13.93
2018-07-25T17:56:26.485Z,13.50
2018-07-25T17:58:56.104Z,16.80
2018-07-25T18:01:26.185Z,16.23
2018-07-25T18:03:58.243Z,15.77
2018-07-25T18:06:36.654Z,16.50
2018-07-25T18:09:10.282Z,17.23
2018-07-25T18:11:40.614Z,16.03
2018-07-25T18:14:14.601Z,14.40
2018-07-25T18:16:46.046Z,13.90
2018-07-25T18:19:17.911Z,16.67
2018-07-25T18:21:48.485Z,20.33
2018-07-25T18:24:19.412Z,18.10
2018-07-25T18:26:49.242Z,15.93
2018-07-25T18:29:18.798Z,13.40
2018-07-25T18:31:49.975Z,14.00
2018-07-25T18:36:54.922Z,14.43
2018-07-25T18:39:24.297Z,11.70
2018-07-25T18:41:53.529Z,11.50
2018-07-25T18:44:23.131Z,13.60
2018-07-25T18:46:52.592Z,13.50
2018-07-25T18:49:22.033Z,13.23
2018-07-25T18:51:51.977Z,14.40
2018-07-25T18:54:21.500Z,12.27
2018-07-25T18:56:51.664Z,8.53
2018-07-25T18:59:21.474Z,8.13
2018-07-25T19:01:50.851Z,7.50
2018-07-25T19:04:20.249Z,7.97
2018-07-25T19:06:49.530Z,9.10
2018-07-25T19:09:18.850Z,11.20
2018-07-25T19:11:48.084Z,9.53
2018-07-25T19:14:23.041Z,10.43
2018-07-25T19:16:52.228Z,12.17
2018-07-25T19:19:21.432Z,12.13
2018-07-25T19:21:50.608Z,13.20
2018-07-25T19:24:21.048Z,13.40
2018-07-25T19:26:51.026Z,12.70
2018-07-25T19:29:20.643Z,11.63
2018-07-25T19:31:50.911Z,12.47
2018-07-25T19:34:20.181Z,11.50
2018-07-25T19:36:49.585Z,9.80
2018-07-25T19:39:18.834Z,10.93
2018-07-25T19:41:48.725Z,10.93
2018-07-25T19:44:18.013Z,11.83
2018-07-25T19:46:47.297Z,12.23
2018-07-25T19:49:16.532Z,11.93
2018-07-25T19:51:46.301Z,11.77
2018-07-25T19:54:16.076Z,12.03
2018-07-25T19:56:45.403Z,11.47
2018-07-25T19:59:14.646Z,11.23
2018-07-25T20:01:44.822Z,13.27
2018-07-25T20:04:13.836Z,11.60
2018-07-25T20:06:43.020Z,10.83
2018-07-25T20:09:12.065Z,14.53
2018-07-25T20:11:41.113Z,13.97
2018-07-25T20:16:18.162Z,13.10
2018-07-25T20:18:47.393Z,13.50
2018-07-25T20:21:16.514Z,13.50
2018-07-25T20:23:45.917Z,11.63
2018-07-25T20:26:15.690Z,14.40
2018-07-25T20:28:44.753Z,12.73
2018-07-25T20:31:13.846Z,12.23
2018-07-25T20:33:43.697Z,12.60
2018-07-25T20:36:13.216Z,13.43
2018-07-25T20:38:42.723Z,13.67
2018-07-25T20:41:12.099Z,15.20
2018-07-25T20:43:42.285Z,13.40
2018-07-25T20:46:11.669Z,12.57
2018-07-25T20:48:40.961Z,13.87
2018-07-25T20:51:10.260Z,13.70
2018-07-25T20:53:39.581Z,12.37
2018-07-25T20:56:09.109Z,13.47
2018-07-25T20:58:39.480Z,12.87
2018-07-25T21:01:10.729Z,12.30
2018-07-25T21:03:40.338Z,13.97
2018-07-25T21:06:09.777Z,14.73
2018-07-25T21:08:39.065Z,13.00
2018-07-25T21:11:08.641Z,13.47
2018-07-25T21:13:38.116Z,13.03
2018-07-25T21:16:07.544Z,14.60
2018-07-25T21:18:37.513Z,13.70
2018-07-25T21:21:07.623Z,13.40
2018-07-25T21:23:37.115Z,13.93
2018-07-25T21:26:06.455Z,15.43
2018-07-25T21:28:35.749Z,14.20
2018-07-25T21:31:05.132Z,15.17
2018-07-25T21:33:34.496Z,16.30
2018-07-25T21:36:04.005Z,14.83
2018-07-25T21:38:33.137Z,14.70
2018-07-25T21:41:02.197Z,16.57
2018-07-25T21:43:31.538Z,13.23
2018-07-25T21:46:00.679Z,15.43
2018-07-25T21:48:29.785Z,16.30
2018-07-25T21:50:58.942Z,13.00
2018-07-25T21:53:27.979Z,15.27
2018-07-25T21:55:57.031Z,13.30
2018-07-25T21:58:26.091Z,13.90
2018-07-25T22:00:58.742Z,14.00
2018-07-25T22:03:27.932Z,13.97
2018-07-25T22:05:57.054Z,12.73
2018-07-25T22:08:26.500Z,13.90
2018-07-25T22:10:55.569Z,13.73
2018-07-25T22:15:51.297Z,15.67
2018-07-25T22:18:19.929Z,15.10
2018-07-25T22:20:49.013Z,13.97
2018-07-25T22:23:18.158Z,15.17
2018-07-25T22:25:48.430Z,13.80
2018-07-25T22:28:17.476Z,13.93
2018-07-25T22:30:46.578Z,13.80
2018-07-25T22:33:15.656Z,15.40
2018-07-25T22:35:44.805Z,14.50
2018-07-25T22:38:13.969Z,15.40
2018-07-25T22:40:43.179Z,14.10
2018-07-25T22:43:11.792Z,14.80
2018-07-25T22:45:41.685Z,15.73
2018-07-25T22:48:10.820Z,15.93
2018-07-25T22:50:39.986Z,15.40
2018-07-25T22:53:09.061Z,16.77
2018-07-25T22:55:38.128Z,16.40
2018-07-25T22:58:07.285Z,16.83
2018-07-25T23:00:36.688Z,15.37
2018-07-25T23:03:06.028Z,17.13
2018-07-25T23:05:34.908Z,17.90
2018-07-25T23:08:04.399Z,15.57
2018-07-25T23:10:33.430Z,17.40
2018-07-25T23:13:02.464Z,15.20
2018-07-25T23:15:32.002Z,16.23
2018-07-25T23:18:00.567Z,16.70
2018-07-25T23:20:29.881Z,17.43
2018-07-25T23:23:00.145Z,15.90
2018-07-25T23:25:30.539Z,18.03
2018-07-25T23:28:00.516Z,17.37
2018-07-25T23:30:30.488Z,17.67
2018-07-25T23:32:59.484Z,17.37
2018-07-25T23:35:28.796Z,16.63
2018-07-25T23:37:57.805Z,17.50
2018-07-25T23:40:26.837Z,17.80
2018-07-25T23:42:55.385Z,17.97
2018-07-25T23:45:24.410Z,18.30
2018-07-25T23:47:53.397Z,18.03
2018-07-25T23:50:21.961Z,17.20
2018-07-25T23:52:50.963Z,18.30
2018-07-25T23:55:19.963Z,18.53
2018-07-25T23:57:48.460Z,19.30
